x

Silver Bay, Mn (slvm5) Weather Station

5:40am - Fri 26th Dec 2014 All times are CST. -6 hours from GMT.

  • Wind
    11mph, 20mph gusts
  • Air Temp 31°f
  • Sea Pressure 1014.9mb
  • Silver Bay, Mn
  • Silver Bay, Mn

More Historic Weather Station data

Upgrade to MSW Pro to gain access to the past 30 days of data for over 8000 Wavebouys and Weather Stations around the globe.

Join Pro

Comparision Forecast

View Surf forecast
   
Fri 12/26 5:40am 11 20 mph 1014.9mb 31f
5:30am 11 20 mph 1014.9mb 31f
5:20am 14 20 mph 1014.9mb 31f
5:10am 14 20 mph 1014.6mb 31f
5:00am 13 22 mph 1014.6mb 31f
4:40am 16 20 mph 1014.2mb 31f
4:30am 13 21 mph 1014.2mb 31f
4:20am 13 18 mph 1014.2mb 31f
4:10am 9 21 mph 1014.2mb 31f
4:00am 15 22 mph 1014.2mb 31f
3:40am 11 18 mph 1013.9mb 32f
3:30am 13 20 mph 1013.9mb 32f
3:20am 10 20 mph 1013.9mb 32f
3:10am 10 18 mph 1013.9mb 32f
3:00am 11 22 mph 1013.9mb 32f
2:40am 13 20 mph 1013.5mb 32f
2:30am 14 20 mph 1013.5mb 32f
2:20am 15 20 mph 1013.2mb 32f
2:10am 14 17 mph 1013.2mb 32f
2:00am 15 20 mph 1013.2mb 33f
1:40am 13 17 mph 1013.2mb 33f
1:30am 10 15 mph 1013.2mb 33f
1:20am 8 14 mph 1013.2mb 33f
1:10am 9 14 mph 1013.2mb 33f
1:00am 10 15 mph 1013.2mb 33f
12:40am 10 15 mph 1013.2mb 33f
12:30am 10 14 mph 1012.9mb 34f
12:20am 9 13 mph 1012.9mb 33f
12:10am 5 9 mph 1013.2mb 33f
12:00am 3 10 mph 1013.2mb 33f
Thu 12/25 11:40pm  -  mph 1012.9mb 33f
11:30pm  -  mph 1012.9mb 33f
11:20pm  -  7 mph 1012.9mb 33f
11:10pm 1 7 mph 1012.9mb 33f
11:00pm  -  mph 1012.9mb 33f
10:40pm  -  mph 1012.9mb 33f
10:30pm  -  mph 1012.9mb 33f
10:20pm  -  mph 1012.5mb 33f
10:10pm  -  mph 1012.5mb 33f
10:00pm  -  mph 1012.2mb 33f
9:40pm  -  mph 1012.2mb 33f
9:30pm  -  mph 1012.2mb 33f
9:20pm  -  mph 1012.2mb 33f
9:10pm  -  mph 1011.9mb 33f
9:00pm  -  5 mph 1011.9mb 33f
8:40pm 3 8 mph 1011.9mb 34f
8:30pm 5 9 mph 1011.5mb 34f
8:20pm  -  7 mph 1011.5mb 34f
8:10pm 5 8 mph 1011.5mb 34f
8:00pm 1 7 mph 1011.5mb 34f
6:40pm  -  mph 1010.5mb 34f
6:30pm  -  mph 1010.5mb 34f
6:20pm  -  mph 1010.2mb 34f
6:10pm  -  3 mph 1010.2mb 34f
6:00pm  -  6 mph 1010.2mb 34f
5:40pm  -  5 mph 1010.2mb 34f
5:30pm 3 6 mph 1009.8mb 34f
5:20pm 3 7 mph 1009.8mb 34f
5:10pm 5 8 mph 1009.5mb 35f
5:00pm 7 9 mph 1009.5mb 35f
4:40pm 7 9 mph 1009.1mb 35f
4:30pm 7 8 mph 1009.1mb 35f
4:20pm 6 8 mph 1008.8mb 35f
4:10pm 6 10 mph 1008.8mb 35f
4:00pm 7 9 mph 1008.5mb 35f
3:40pm 8 11 mph 1008.5mb 35f
3:30pm 9 13 mph 1008.1mb 35f
3:20pm 10 14 mph 1008.1mb 35f
3:10pm 8 14 mph 1007.8mb 35f
3:00pm 7 14 mph 1007.8mb 35f
2:40pm 8 13 mph 1007.5mb 35f
2:30pm 7 10 mph 1007.1mb 35f
2:20pm 10 13 mph 1006.8mb 35f
2:10pm 9 13 mph 1006.8mb 35f
2:00pm 8 16 mph 1006.8mb 35f
1:40pm 7 13 mph 1006.4mb 35f
1:30pm 11 16 mph 1006.1mb 35f
1:20pm 14 17 mph 1006.1mb 35f
1:10pm 10 14 mph 1005.8mb 35f
1:00pm 9 16 mph 1005.8mb 35f
12:40pm 11 15 mph 1005.4mb 35f
12:30pm 8 16 mph 1005.4mb 35f
12:20pm 9 14 mph 1005.1mb 35f
12:10pm 1 13 mph 1005.1mb 35f
12:00pm 11 14 mph 1005.1mb 35f
11:40am  -  9 mph 1005.1mb 34f
11:30am 10 15 mph 1005.1mb 34f
11:20am 9 16 mph 1004.7mb 35f
11:10am 10 16 mph 1004.7mb 35f
11:00am 13 17 mph 1004.7mb 35f
10:40am 9 16 mph 1004.4mb 35f
10:30am 8 11 mph 1004.4mb 35f
10:20am 8 13 mph 1004.1mb 35f
10:10am 8 11 mph 1004.1mb 35f
10:00am 8 13 mph 1004.1mb 35f
9:40am 7 14 mph 1003.7mb 35f
9:30am 9 13 mph 1003.7mb 35f
9:20am 8 10 mph 1003.4mb 35f
9:10am 8 11 mph 1003.4mb 34f
9:00am 8 10 mph 1003mb 34f
8:40am 10 11 mph 1002.7mb 34f
8:30am 9 11 mph 1002.4mb 34f
8:20am 10 14 mph 1002.4mb 34f
8:10am 11 13 mph 1002mb 34f
8:00am 13 14 mph 1002mb 34f
7:40am 11 14 mph 1001.7mb 34f
7:30am 11 14 mph 1001.7mb 34f
7:20am 11 15 mph 1001.4mb 34f
7:10am 13 14 mph 1001.4mb 34f
7:00am 14 16 mph 1001.4mb 34f
6:40am 15 16 mph 1001mb 34f
6:30am 13 15 mph 1000.7mb 34f
6:20am 11 15 mph 1000.7mb 34f
6:10am 11 13 mph 1000.7mb 34f
6:00am 10 13 mph 1000.3mb 34f
5:50am 10 13 mph 1000.3mb 34f
5:40am 11 14 mph 1000mb 34f
5:30am 9 11 mph 1000.3mb 34f
5:20am 8 11 mph 1000mb 34f
5:10am 7 11 mph 1000mb 33f
5:00am 8 11 mph 999.7mb 33f
4:50am 9 14 mph 999.7mb 34f
4:40am 10 13 mph 999.7mb 34f
4:30am 11 14 mph 999.7mb 34f
4:20am 13 15 mph 999.7mb 34f
4:10am 11 15 mph 999.7mb 34f
4:00am 11 13 mph 999.7mb 34f
3:50am 10 13 mph 999.7mb 34f
3:40am 11
mph
999.7mb 34f
3:30am 10 14 mph 999.7mb 34f
3:20am 11 14 mph 999.3mb 34f
3:10am 11 13 mph 999.3mb 34f
3:00am 13 14 mph 999.3mb 34f
2:50am 11 14 mph 999.3mb 34f
2:40am 11 13 mph 999.7mb 34f
2:30am 10 13 mph 999.7mb 34f
2:20am 10 13 mph 999.3mb 34f
2:10am 10 11 mph 999mb 33f
2:00am 9 13 mph 999mb 33f
1:50am 9 11 mph 999mb 33f
1:40am 8 11 mph 999mb 34f
1:30am 8 11 mph 999mb 34f
1:20am 9 15 mph 998.6mb 33f
1:10am 11 14 mph 998.6mb 34f
1:00am 13 14 mph 998.6mb 34f
12:50am 11 14 mph 998.6mb 34f
12:40am 7 10 mph 998.6mb 34f
12:30am 9 11 mph 998.6mb 34f
12:20am 9 14 mph 999mb 34f
12:10am 10
mph
999mb 34f
12:00am 6 8 mph 999mb 34f
Wed 12/24 11:50pm 5 8 mph 999mb 34f
11:40pm 7 8 mph 998.6mb 34f
11:30pm 7 8 mph 998.6mb 34f
11:20pm  -  mph 998.6mb 34f
11:10pm  -  mph 998.6mb 34f
11:00pm  -  mph 998.6mb 34f
10:50pm  -  mph 998.6mb 34f
10:40pm  -  mph 999mb 34f
10:30pm  -  mph 999mb 34f
10:20pm  -  mph 999mb 34f
10:10pm  -  mph 999mb 34f
10:00pm  -  mph 999mb 34f
9:50pm  -  mph 999.3mb 34f
9:40pm  -  mph 999.3mb 34f
9:30pm  -  mph 999.3mb 34f
9:20pm  -  mph 999.3mb 34f
9:10pm  -  mph 999.3mb 34f
9:00pm  -  mph 999.3mb 34f
8:50pm  -  mph 999.7mb 34f
8:40pm  -  mph 999.7mb 34f
8:30pm  -  mph 999.7mb 34f
8:20pm  -  mph 999.7mb 34f
8:10pm  -  mph 999.7mb 34f
8:00pm  -  mph 999.7mb 34f
7:50pm  -  mph 1000mb 33f
7:40pm  -  mph 1000mb 33f
7:30pm  -  mph 1000mb 33f
7:20pm  -  mph 1000mb 33f
7:10pm  -  mph 1000.3mb 33f
7:00pm  -  mph 1000mb 35f
6:50pm  -  mph 1000mb 35f
6:40pm  -  mph 1000mb 35f
6:30pm  -  mph 1000.3mb 35f
6:20pm  -  mph 1000.3mb 35f
6:10pm  -  mph 1000.7mb 35f
6:00pm  -  mph 1000.7mb 35f
5:50pm  -  mph 1000.7mb 35f
5:40pm  -  mph 1001mb 35f
5:30pm  -  mph 1001mb 35f
5:20pm  -  mph 1001mb 35f
5:10pm  -  mph 1001mb 35f
5:00pm  -  mph 1001.4mb 35f
4:50pm  -  mph 1001.4mb 35f
4:40pm  -  mph 1001.4mb 36f
4:30pm  -  mph 1001.4mb 36f
4:20pm  -  mph 1001.7mb 36f
4:10pm  -  mph 1001.7mb 36f
4:00pm  -  mph 1001.7mb 36f
3:50pm  -  mph 1002mb 36f
3:40pm  -  mph 1001.7mb 37f
3:30pm  -  6 mph 1002mb 37f
3:20pm 2 7 mph 1002mb 37f
3:10pm 2 5 mph 1002mb 37f
3:00pm 3 9 mph 1002.4mb 37f
2:50pm 5 9 mph 1002.4mb 37f
2:40pm  -  3 mph 1002.4mb 37f
2:30pm  -  5 mph 1002.4mb 37f
2:20pm 1 5 mph 1002.4mb 37f
2:10pm 2 8 mph 1002.4mb 37f
2:00pm 5 7 mph 1003mb 37f
1:50pm  -  6 mph 1003mb 37f
1:40pm 3 6 mph 1003mb 37f
1:30pm  -  mph 1003.4mb 37f
1:20pm  -  2 mph 1003.4mb 37f
1:10pm  -  5 mph 1003.4mb 37f
1:00pm  -  5 mph 1003.4mb 37f
12:50pm 3 6 mph 1003.7mb 37f
12:40pm  -  6 mph 1004.1mb 37f
12:30pm 5 7 mph 1004.1mb 37f
12:20pm 6 7 mph 1004.4mb 37f
12:10pm 5 6 mph 1004.7mb 37f
12:00pm 5 6 mph 1004.7mb 37f
11:50am  -  6 mph 1005.1mb 38f
11:40am  -  7 mph 1005.1mb 37f
11:30am 2 7 mph 1005.4mb 37f
11:20am  -  8 mph 1005.4mb 37f
11:10am 2 6 mph 1005.8mb 37f
11:00am 5 7 mph 1005.8mb 37f
10:50am  -  7 mph 1006.1mb 37f
10:40am 7 10 mph 1006.4mb 37f
10:30am 5 9 mph 1006.8mb 37f
10:20am 8 11 mph 1006.8mb 37f
10:10am 9 16 mph 1006.8mb 37f
10:00am 13 16 mph 1006.8mb 37f
9:50am 13 16 mph 1006.8mb 36f
9:40am 13 20 mph 1006.8mb 37f
9:30am 11 18 mph 1006.8mb 37f
9:20am 14 18 mph 1006.8mb 37f
9:10am 13 18 mph 1006.8mb 37f
9:00am 11 17 mph 1006.8mb 37f
8:50am 13 17 mph 1006.8mb 37f
8:40am 11 18 mph 1006.8mb 36f
8:30am 13 17 mph 1007.1mb 36f
8:20am 13 16 mph 1007.5mb 36f
8:10am 8 14 mph 1007.5mb 36f
8:00am 10 14 mph 1007.5mb 35f
7:50am 10 16 mph 1007.5mb 36f
7:40am 10 16 mph 1007.8mb 36f
7:30am 10 14 mph 1007.8mb 36f
7:20am 9 17 mph 1007.8mb 36f
7:10am 10 15 mph 1008.1mb 36f
7:00am 9 14 mph 1008.1mb 36f
6:50am 9 13 mph 1008.1mb 36f
6:40am 2 9 mph 1008.8mb 36f
6:30am 2 6 mph 1008.8mb 36f
6:20am 1 7 mph 1008.8mb 36f
6:10am 5 7 mph 1009.1mb 36f
6:00am 3 5 mph 1009.1mb 36f
5:50am  -  mph 1009.1mb 35f
5:40am  -  mph 1009.1mb 35f
5:30am  -  5 mph 1009.1mb 35f
5:20am 1 3 mph 1009.5mb 35f
5:10am 3 5 mph 1009.1mb 35f
5:00am 3 8 mph 1009.1mb 35f
4:50am 5 9 mph 1009.1mb 36f
4:40am 6 14 mph 1009.1mb 36f
4:30am 10 15 mph 1009.5mb 36f
4:20am 10 17 mph 1009.1mb 37f
4:10am 10 18 mph 1008.8mb 37f
4:00am 14 17 mph 1008.8mb 36f
3:50am 14 21 mph 1008.8mb 36f
3:40am 13 21 mph 1008.5mb 36f
3:30am 14 20 mph 1008.8mb 36f
3:20am 13 20 mph 1008.5mb 36f
3:10am 11 17 mph 1008.8mb 36f
3:00am 10 14 mph 1008.8mb 36f
2:50am 2 7 mph 1009.1mb 36f
2:40am 2 8 mph 1009.1mb 36f
2:30am 3 8 mph 1009.5mb 36f
2:20am 6 10 mph 1009.8mb 36f
2:10am 9 14 mph 1009.8mb 37f
2:00am 10 15 mph 1009.8mb 37f
1:50am 11 15 mph 1009.8mb 37f
1:40am 9 15 mph 1010.2mb 37f
1:30am 13 18 mph 1009.8mb 37f
1:20am 13 17 mph 1009.8mb 37f
1:10am 13 15 mph 1009.8mb 37f
1:00am 11 15 mph 1010.2mb 37f
12:50am 11 17 mph 1010.2mb 37f
12:40am 13 16 mph 1010.2mb 37f
12:30am 13 17 mph 1010.2mb 37f
12:20am 14 16 mph 1010.5mb 37f
12:10am 11 16 mph 1010.5mb 37f
12:00am 11 14 mph 1010.5mb 37f
Tue 12/23 11:50pm 11 14 mph 1010.5mb 37f
11:40pm 10 13 mph 1010.5mb 37f
11:30pm 9 14 mph 1010.5mb 37f
11:20pm 11 16 mph 1010.5mb 37f
11:10pm 9 11 mph 1010.5mb 37f
11:00pm 7 11 mph 1010.8mb 37f
10:50pm 9 13 mph 1010.8mb 37f
10:40pm 8 10 mph 1010.8mb 37f
10:30pm 7 13 mph 1011.2mb 38f
10:20pm 9 13 mph 1011.2mb 38f
10:10pm 9 13 mph 1010.8mb 37f
10:00pm 9 11 mph 1010.8mb 37f
9:50pm 8 13 mph 1010.8mb 38f
9:40pm 10 14 mph 1010.8mb 38f
9:30pm 9 11 mph 1010.5mb 37f
9:20pm 6 11 mph 1010.5mb 37f
9:10pm 7 13 mph 1010.5mb 37f
9:00pm 3 9 mph 1010.5mb 37f
8:50pm 3 9 mph 1010.2mb 37f
8:40pm 3 8 mph 1010.2mb 37f
8:30pm 3 8 mph 1010.2mb 37f
8:20pm 6 8 mph 1009.8mb 37f
8:10pm 5 10 mph 1009.8mb 37f
8:00pm 5 9 mph 1009.8mb 36f
7:50pm 5 8 mph 1009.8mb 36f
7:40pm 5 8 mph 1010.2mb 36f
7:30pm 3 11 mph 1009.8mb 36f
7:20pm 6 9 mph 1009.8mb 36f
6:40pm 5 14 mph 1010.2mb 37f
6:30pm 1 8 mph 1010.2mb 36f
6:20pm 8 10 mph 1009.8mb 36f
6:10pm 7 15 mph 1009.8mb 36f
6:00pm 11 15 mph 1010.2mb 36f
5:50pm 9 13 mph 1010.2mb 36f
5:40pm 6 8 mph 1010.2mb 35f
5:30pm  -  6 mph 1010.2mb 35f
5:20pm 3 6 mph 1010.2mb 35f
5:10pm 3 8 mph 1009.8mb 35f
5:00pm 3 8 mph 1009.8mb 35f
4:50pm 3 10 mph 1009.8mb 35f
4:40pm 3 13 mph 1009.8mb 35f
4:30pm 5 8 mph 1010.2mb 35f
4:20pm 1 7 mph 1009.8mb 36f
4:10pm  -  6 mph 1009.8mb 36f
4:00pm  -  6 mph 1009.5mb 36f
3:50pm 2 6 mph 1009.5mb 36f
3:40pm  -  7 mph 1009.5mb 36f
3:30pm  -  3 mph 1009.5mb 35f
3:20pm  -  mph 1009.5mb 35f
3:10pm  -  8 mph 1009.1mb 35f
3:00pm  -  9 mph 1009.1mb 35f
2:40pm 5 10 mph 1009.1mb 35f
2:30pm 8 11 mph 1009.1mb 35f
2:20pm 8 16 mph 1008.8mb 35f
2:10pm 6 16 mph 1008.8mb 35f
2:00pm 9 17 mph 1008.8mb 35f
1:50pm 13 18 mph 1008.8mb 35f
1:40pm 8 16 mph 1008.8mb 35f
1:30pm 13 21 mph 1008.8mb 35f
1:20pm 9 17 mph 1008.8mb 35f
1:10pm 11 21 mph 1008.8mb 35f
1:00pm 10 20 mph 1008.5mb 35f
12:50pm 14 21 mph 1008.8mb 35f
12:40pm 14 22 mph 1008.5mb 35f
12:30pm 13 22 mph 1008.5mb 35f
12:20pm 14 21 mph 1008.5mb 35f
12:10pm 15 23 mph 1008.5mb 35f
12:00pm 13 26 mph 1008.5mb 35f
11:50am 14 23 mph 1008.8mb 35f
11:40am 15 22 mph 1008.8mb 35f
11:30am 13 21 mph 1008.8mb 35f
11:20am 14 24 mph 1008.8mb 35f
11:10am 17 26 mph 1008.8mb 35f
11:00am 18 29 mph 1008.8mb 35f
10:50am 16 25 mph 1008.8mb 36f
10:40am 17 24 mph 1009.1mb 35f
10:30am 13 23 mph 1009.1mb 35f
10:20am 13 23 mph 1009.1mb 35f
10:10am 14 22 mph 1009.1mb 35f
10:00am 11 23 mph 1009.1mb 35f
9:50am 13 21 mph 1009.1mb 35f
9:40am 14 22 mph 1009.1mb 34f
9:30am 13 22 mph 1009.1mb 34f
9:20am 15 23 mph 1009.1mb 35f
9:10am 15 24 mph 1009.1mb 35f
9:00am 16 23 mph 1009.1mb 35f
8:50am 15 24 mph 1008.8mb 35f
8:40am 16 25 mph 1008.8mb 35f
8:30am 17 25 mph 1008.8mb 35f
8:20am 18 26 mph 1008.8mb 35f
8:10am 16 24 mph 1008.8mb 35f
8:00am 16 24 mph 1008.8mb 35f
7:50am 17 24 mph 1008.8mb 35f
7:40am 16 26 mph 1008.8mb 35f
7:30am 16 26 mph 1008.8mb 35f
7:20am 16 26 mph 1008.8mb 35f
7:10am 20 28 mph 1008.5mb 35f
7:00am 20 29 mph 1008.5mb 35f
6:50am 20 29 mph 1008.8mb 35f
6:40am 20 26 mph 1008.8mb 36f
6:30am 16 26 mph 1008.8mb 36f
6:20am 18 25 mph 1008.8mb 36f
6:10am 23 29 mph 1008.8mb 36f
6:00am 17 26 mph 1008.8mb 36f
5:40am 17 24 mph 1008.8mb 36f
5:30am 18 26 mph 1008.5mb 36f
5:20am 21 26 mph 1008.5mb 36f
5:10am 17 26 mph 1008.5mb 36f
5:00am 20 25 mph 1008.5mb 36f
4:50am 18 25 mph 1008.5mb 36f
4:40am 16 24 mph 1008.5mb 36f
4:30am 13 21 mph 1008.5mb 36f
4:20am 15 23 mph 1008.5mb 36f
4:10am 18 23 mph 1008.5mb 36f
4:00am 21 23 mph 1008.5mb 36f
3:50am 18 24 mph 1008.8mb 36f
3:40am 16 21 mph 1008.8mb 36f
3:30am 15 21 mph 1008.8mb 36f
3:20am 17 22 mph 1008.8mb 36f
3:10am 18 24 mph 1008.8mb 36f
3:00am 18 22 mph 1009.1mb 36f
2:50am 21 23 mph 1009.1mb 36f
2:40am 21 24 mph 1009.1mb 37f
2:30am 21 23 mph 1009.1mb 37f
2:20am 20 23 mph 1009.1mb 37f
2:10am 16 21 mph 1009.1mb 37f
2:00am 20 22 mph 1009.1mb 37f
1:50am 16 22 mph 1009.1mb 37f
1:40am 17 21 mph 1009.1mb 37f
1:30am 18 21 mph 1008.8mb 37f
1:20am 17 20 mph 1009.1mb 37f
1:10am 16 20 mph 1008.8mb 37f
1:00am 14 20 mph 1009.1mb 37f
12:50am 17 21 mph 1009.1mb 37f
12:40am 17 20 mph 1009.1mb 37f
12:30am 15 18 mph 1009.1mb 37f
12:20am 15 20 mph 1009.1mb 37f
12:10am 14 17 mph 1009.1mb 37f
12:00am 15 18 mph 1009.1mb 37f
Mon 12/22 11:50pm 16 20 mph 1009.1mb 37f
11:40pm 14 16 mph 1009.1mb 37f
11:30pm 11 15 mph 1009.1mb 37f
11:20pm 10 16 mph 1009.1mb 37f
11:10pm 11 15 mph 1008.8mb 37f
11:00pm 11 15 mph 1008.8mb 37f
10:50pm 14 17 mph 1008.8mb 37f
10:40pm 11 16 mph 1008.8mb 37f
10:30pm 10 15 mph 1008.8mb 37f
10:20pm 11 15 mph 1008.8mb 37f
10:10pm 9 15 mph 1008.8mb 37f
10:00pm 9 14 mph 1008.8mb 37f
9:50pm 8 14 mph 1008.8mb 37f
9:40pm 9 13 mph 1008.8mb 36f
9:30pm 8 14 mph 1008.5mb 36f
9:20pm 6 13 mph 1008.5mb 36f
9:10pm 8 11 mph 1008.5mb 36f
9:00pm 6 11 mph 1008.5mb 36f
8:50pm 7 11 mph 1008.5mb 36f
8:40pm 7 11 mph 1008.5mb 36f
8:30pm 6 10 mph 1008.5mb 36f
8:20pm 8 11 mph 1008.8mb 36f
8:10pm 8 11 mph 1008.8mb 36f
8:00pm 7 11 mph 1008.5mb 37f
7:50pm 8 10 mph 1008.5mb 36f
7:40pm 6 9 mph 1008.5mb 36f
7:30pm 8 10 mph 1008.5mb 36f
7:20pm 7 10 mph 1008.5mb 37f
7:10pm 9 10 mph 1008.5mb 37f
7:00pm 10 11 mph 1008.5mb 36f
6:50pm 10 11 mph 1008.1mb 37f
6:40pm 9 11 mph 1008.1mb 36f
6:30pm 10 11 mph 1008.1mb 36f
6:20pm 8 10 mph 1008.1mb 37f
6:10pm 9 11 mph 1008.1mb 37f
6:00pm 10 11 mph 1008.1mb 37f
5:50pm 8 11 mph 1008.1mb 37f
5:40pm 9 10 mph 1007.8mb 37f
5:30pm 9 10 mph 1007.8mb 37f
5:20pm 9 11 mph 1007.8mb 37f
5:10pm 8 10 mph 1007.8mb 37f
5:00pm 9 11 mph 1007.8mb 37f
4:50pm 9 10 mph 1007.8mb 37f
4:40pm 9 13 mph 1007.8mb 37f
4:30pm 10 11 mph 1007.8mb 37f
4:20pm 10 13 mph 1007.5mb 37f
4:10pm 11
mph
1007.5mb 37f
4:00pm 10 13 mph 1007.5mb 37f
3:50pm 11 13 mph 1007.1mb 37f
3:40pm 11 13 mph 1007.5mb 37f
3:30pm 10 13 mph 1007.1mb 37f
3:20pm 13
mph
1007.1mb 37f
3:10pm 11 13 mph 1007.1mb 37f
3:00pm 10 13 mph 1006.8mb 37f
2:50pm 10 11 mph 1006.8mb 37f
2:40pm 10 11 mph 1006.8mb 37f
2:30pm 10 11 mph 1006.8mb 37f
2:20pm 8 11 mph 1006.8mb 37f
2:10pm 9 11 mph 1006.4mb 37f
2:00pm 9 10 mph 1006.4mb 37f
1:40pm 9 10 mph 1006.8mb 37f
1:30pm 8 9 mph 1006.8mb 36f
1:20pm 8 9 mph 1006.8mb 36f
1:10pm 7 8 mph 1006.8mb 36f
1:00pm 7 8 mph 1006.8mb 36f
12:50pm 5 8 mph 1006.8mb 36f
12:40pm  -  mph 1006.8mb 36f
12:30pm  -  mph 1006.8mb 36f